createdAt,value
2023-08-01T00:00:23.612Z,16.11
2023-08-01T00:03:14.953Z,16.11
2023-08-01T00:05:46.814Z,16.09
2023-08-01T00:08:16.234Z,16.08
2023-08-01T00:10:45.705Z,16.07
2023-08-01T00:13:15.250Z,16.06
2023-08-01T00:15:53.943Z,16.05
2023-08-01T00:18:35.984Z,16.02
2023-08-01T00:21:06.939Z,15.97
2023-08-01T00:23:37.517Z,15.93
2023-08-01T00:26:06.808Z,15.91
2023-08-01T00:28:37.181Z,15.90
2023-08-01T00:31:10.430Z,15.89
2023-08-01T00:33:40.035Z,15.87
2023-08-01T00:36:10.995Z,15.85
2023-08-01T00:38:40.580Z,15.83
2023-08-01T00:41:09.220Z,15.81
2023-08-01T00:43:39.833Z,15.76
2023-08-01T00:46:11.683Z,15.71
2023-08-01T00:48:42.266Z,15.67
2023-08-01T00:51:14.492Z,15.64
2023-08-01T00:53:43.995Z,15.62
2023-08-01T00:56:13.031Z,15.60
2023-08-01T00:58:42.603Z,15.58
2023-08-01T01:01:11.982Z,15.55
2023-08-01T01:03:42.281Z,15.52
2023-08-01T01:06:17.533Z,15.49
2023-08-01T01:08:47.537Z,15.48
2023-08-01T01:11:17.170Z,15.44
2023-08-01T01:13:45.947Z,15.39
2023-08-01T01:16:15.562Z,15.37
2023-08-01T01:18:45.560Z,15.38
2023-08-01T01:21:15.023Z,15.37
2023-08-01T01:24:04.633Z,15.34
2023-08-01T01:26:36.041Z,15.32
2023-08-01T01:29:07.536Z,15.32
2023-08-01T01:31:38.965Z,15.29
2023-08-01T01:34:10.136Z,15.26
2023-08-01T01:36:39.443Z,15.23
2023-08-01T01:39:09.199Z,15.19
2023-08-01T01:41:39.892Z,15.15
2023-08-01T01:44:09.615Z,15.12
2023-08-01T01:46:40.761Z,15.11
2023-08-01T01:49:11.002Z,15.10
2023-08-01T01:51:41.155Z,15.10
2023-08-01T01:54:10.703Z,15.09
2023-08-01T01:56:41.452Z,15.06
2023-08-01T01:59:11.827Z,15.04
2023-08-01T02:01:42.057Z,15.02
2023-08-01T02:04:10.738Z,14.99
2023-08-01T02:06:41.658Z,14.97
2023-08-01T02:09:11.757Z,14.95
2023-08-01T02:11:41.504Z,14.92
2023-08-01T02:14:11.773Z,14.89
2023-08-01T02:16:41.970Z,14.86
2023-08-01T02:19:12.703Z,14.84
2023-08-01T02:21:42.606Z,14.82
2023-08-01T02:24:14.431Z,14.81
2023-08-01T02:26:47.558Z,14.77
2023-08-01T02:29:18.839Z,14.73
2023-08-01T02:31:48.730Z,14.70
2023-08-01T02:34:19.108Z,14.68
2023-08-01T02:36:48.783Z,14.66
2023-08-01T02:39:18.399Z,14.64
2023-08-01T02:41:48.154Z,14.60
2023-08-01T02:44:17.748Z,14.59
2023-08-01T02:46:47.436Z,14.58
2023-08-01T02:49:17.437Z,14.55
2023-08-01T02:51:47.826Z,14.52
2023-08-01T02:54:18.281Z,14.50
2023-08-01T02:56:47.903Z,14.47
2023-08-01T02:59:17.703Z,14.44
2023-08-01T03:01:47.426Z,14.43
2023-08-01T03:04:17.361Z,14.39
2023-08-01T03:06:50.706Z,14.36
2023-08-01T03:09:21.229Z,14.35
2023-08-01T03:11:50.993Z,14.34
2023-08-01T03:14:20.607Z,14.31
2023-08-01T03:16:51.400Z,14.28
2023-08-01T03:19:22.065Z,14.26
2023-08-01T03:21:50.784Z,14.27
2023-08-01T03:24:23.666Z,14.27
2023-08-01T03:26:52.540Z,14.28
2023-08-01T03:29:22.014Z,14.25
2023-08-01T03:31:54.418Z,14.22
2023-08-01T03:34:24.101Z,14.19
2023-08-01T03:36:53.749Z,14.18
2023-08-01T03:39:23.461Z,14.18
2023-08-01T03:41:52.943Z,14.19
2023-08-01T03:44:25.057Z,14.19
2023-08-01T03:46:55.462Z,14.20
2023-08-01T03:49:25.879Z,14.22
2023-08-01T03:52:00.744Z,14.25
2023-08-01T03:54:31.444Z,14.25
2023-08-01T03:57:01.274Z,14.24
2023-08-01T03:59:31.083Z,14.27
2023-08-01T04:02:00.500Z,14.29
2023-08-01T04:04:29.888Z,14.32
2023-08-01T04:06:59.358Z,14.33
2023-08-01T04:09:28.788Z,14.33
2023-08-01T04:11:58.605Z,14.34
2023-08-01T04:14:28.073Z,14.32
2023-08-01T04:16:57.503Z,14.31
2023-08-01T04:19:26.977Z,14.31
2023-08-01T04:21:56.443Z,14.33
2023-08-01T04:24:26.988Z,14.37
2023-08-01T04:26:56.953Z,14.42
2023-08-01T04:29:27.372Z,14.47
2023-08-01T04:31:57.055Z,14.52
2023-08-01T04:34:27.715Z,14.58
2023-08-01T04:36:59.076Z,14.66
2023-08-01T04:39:27.815Z,14.74
2023-08-01T04:41:59.502Z,14.78
2023-08-01T04:44:30.874Z,14.81
2023-08-01T04:47:00.436Z,14.85
2023-08-01T04:49:29.213Z,14.92
2023-08-01T04:51:58.641Z,15.00
2023-08-01T04:54:28.219Z,15.08
2023-08-01T04:56:57.647Z,15.18
2023-08-01T04:59:27.254Z,15.27
2023-08-01T05:01:57.513Z,15.38
2023-08-01T05:04:27.172Z,15.51
2023-08-01T05:06:57.375Z,15.61
2023-08-01T05:09:26.790Z,15.74
2023-08-01T05:11:56.124Z,15.88
2023-08-01T05:14:25.585Z,15.99
2023-08-01T05:16:55.605Z,16.08
2023-08-01T05:19:25.711Z,16.22
2023-08-01T05:21:56.795Z,16.36
2023-08-01T05:24:26.185Z,16.49
2023-08-01T05:26:57.739Z,16.61
2023-08-01T05:29:27.541Z,16.73
2023-08-01T05:31:57.505Z,16.82
2023-08-01T05:34:28.795Z,16.92
2023-08-01T05:36:58.314Z,17.03
2023-08-01T05:39:27.816Z,17.16
2023-08-01T05:41:56.529Z,17.30
2023-08-01T05:44:26.063Z,17.40
2023-08-01T05:46:55.533Z,17.50
2023-08-01T05:49:25.027Z,17.62
2023-08-01T05:51:55.196Z,17.73
2023-08-01T05:54:24.725Z,17.84
2023-08-01T05:56:55.746Z,17.99
2023-08-01T05:59:25.465Z,18.12
2023-08-01T06:01:55.105Z,18.23
2023-08-01T06:04:24.677Z,18.36
2023-08-01T06:06:54.200Z,18.47
2023-08-01T06:09:24.658Z,18.56
2023-08-01T06:11:54.420Z,18.68
2023-08-01T06:14:24.642Z,18.82
2023-08-01T06:16:53.354Z,18.96
2023-08-01T06:19:22.915Z,19.13
2023-08-01T06:21:52.516Z,19.31
2023-08-01T06:24:21.954Z,19.48
2023-08-01T06:26:52.255Z,19.64
2023-08-01T06:29:21.566Z,19.79
2023-08-01T06:31:52.127Z,19.91
2023-08-01T06:34:21.124Z,20.05
2023-08-01T06:36:51.537Z,20.21
2023-08-01T06:39:21.078Z,20.31
2023-08-01T06:41:50.520Z,20.45
2023-08-01T06:44:20.047Z,20.61
2023-08-01T06:46:49.503Z,20.79
2023-08-01T06:49:18.346Z,20.96
2023-08-01T06:51:47.816Z,21.11
2023-08-01T06:54:17.449Z,21.22
2023-08-01T06:56:49.109Z,21.35
2023-08-01T06:59:19.697Z,21.49
2023-08-01T07:01:49.776Z,21.69
2023-08-01T07:04:19.219Z,21.82
2023-08-01T07:06:48.752Z,21.98
2023-08-01T07:09:18.181Z,22.18
2023-08-01T07:11:47.618Z,22.36
2023-08-01T07:14:17.899Z,22.53
2023-08-01T07:16:47.231Z,22.70
2023-08-01T07:19:16.701Z,22.89
2023-08-01T07:21:48.041Z,23.04
2023-08-01T07:24:17.477Z,23.19
2023-08-01T07:26:46.236Z,23.34
2023-08-01T07:29:17.415Z,23.48
2023-08-01T07:31:47.917Z,23.63
2023-08-01T07:34:17.639Z,23.77
2023-08-01T07:36:53.705Z,23.89
2023-08-01T07:39:23.454Z,24.04
2023-08-01T07:41:52.862Z,24.23
2023-08-01T07:44:22.808Z,24.38
2023-08-01T07:46:52.236Z,24.51
2023-08-01T07:49:22.528Z,24.64
2023-08-01T07:51:52.863Z,24.72
2023-08-01T07:54:22.884Z,24.83
2023-08-01T07:56:52.297Z,24.97
2023-08-01T07:59:21.830Z,25.05
2023-08-01T08:01:51.275Z,25.17
2023-08-01T08:04:20.039Z,25.23
2023-08-01T08:06:51.092Z,25.35
2023-08-01T08:09:20.518Z,25.50
2023-08-01T08:11:52.009Z,25.60
2023-08-01T08:14:23.133Z,25.67
2023-08-01T08:16:53.400Z,25.75
2023-08-01T08:19:25.667Z,25.87
2023-08-01T08:21:56.010Z,26.04
2023-08-01T08:24:26.229Z,26.24
2023-08-01T08:26:56.789Z,26.39
2023-08-01T08:29:26.696Z,26.45
2023-08-01T08:31:57.012Z,26.56
2023-08-01T08:34:26.518Z,26.78
2023-08-01T08:36:57.908Z,26.96
2023-08-01T08:39:27.306Z,27.08
2023-08-01T08:41:59.293Z,27.07
2023-08-01T08:44:34.871Z,27.19
2023-08-01T08:47:08.026Z,27.44
2023-08-01T08:49:38.633Z,27.68
2023-08-01T08:52:09.452Z,27.82
2023-08-01T08:54:39.879Z,27.94
2023-08-01T08:57:11.749Z,28.07
2023-08-01T08:59:41.323Z,28.19
2023-08-01T09:02:11.177Z,28.30
2023-08-01T09:04:40.731Z,28.39
2023-08-01T09:07:12.157Z,28.55
2023-08-01T09:09:41.632Z,28.71
2023-08-01T09:12:11.606Z,28.97
2023-08-01T09:14:41.548Z,28.98
2023-08-01T09:17:11.742Z,29.00
2023-08-01T09:19:40.936Z,29.06
2023-08-01T09:22:15.773Z,29.19
2023-08-01T09:24:54.977Z,29.35
2023-08-01T09:27:35.165Z,29.50
2023-08-01T09:30:15.322Z,29.17
2023-08-01T09:32:55.338Z,28.75
2023-08-01T09:35:25.146Z,28.60
2023-08-01T09:37:54.783Z,28.79
2023-08-01T09:40:24.307Z,28.77
2023-08-01T09:42:54.025Z,28.50
2023-08-01T09:45:23.936Z,28.23
2023-08-01T09:47:52.604Z,28.34
2023-08-01T09:50:27.166Z,28.61
2023-08-01T09:52:58.285Z,28.79
2023-08-01T09:55:33.553Z,28.91
2023-08-01T09:58:04.720Z,29.04
2023-08-01T10:00:35.072Z,29.08
2023-08-01T10:03:05.371Z,29.22
2023-08-01T10:05:37.468Z,29.44
2023-08-01T10:08:06.511Z,29.60
2023-08-01T10:10:36.587Z,29.68
2023-08-01T10:13:06.815Z,29.89
2023-08-01T10:15:36.374Z,30.12
2023-08-01T10:18:06.097Z,30.31
2023-08-01T10:20:36.933Z,30.32
2023-08-01T10:23:10.296Z,30.21
2023-08-01T10:25:43.330Z,29.83
2023-08-01T10:28:14.059Z,29.42
2023-08-01T10:30:43.765Z,29.48
2023-08-01T10:33:14.558Z,29.71
2023-08-01T10:35:44.200Z,29.64
2023-08-01T10:38:13.993Z,29.74
2023-08-01T10:40:44.997Z,29.91
2023-08-01T10:43:25.346Z,30.09
2023-08-01T10:46:05.121Z,29.93
2023-08-01T10:48:34.124Z,29.68
2023-08-01T10:51:05.653Z,29.39
2023-08-01T10:53:43.220Z,29.15
2023-08-01T10:56:22.538Z,29.06
2023-08-01T10:58:52.020Z,29.04
2023-08-01T11:01:22.208Z,28.95
2023-08-01T11:03:52.068Z,29.22
2023-08-01T11:06:22.217Z,29.57
2023-08-01T11:08:52.476Z,29.86
2023-08-01T11:11:21.986Z,30.10
2023-08-01T11:13:54.938Z,30.42
2023-08-01T11:16:24.621Z,30.58
2023-08-01T11:18:54.764Z,30.62
2023-08-01T11:21:31.139Z,30.64
2023-08-01T11:24:07.556Z,30.42
2023-08-01T11:26:41.603Z,30.30
2023-08-01T11:29:14.183Z,30.33
2023-08-01T11:31:54.275Z,30.52
2023-08-01T11:34:24.131Z,30.81
2023-08-01T11:36:54.785Z,31.17
2023-08-01T11:39:24.914Z,31.17
2023-08-01T11:41:55.266Z,30.90
2023-08-01T11:44:27.676Z,31.03
2023-08-01T11:46:58.057Z,30.87
2023-08-01T11:49:28.358Z,30.71
2023-08-01T11:51:58.781Z,30.90
2023-08-01T11:54:29.043Z,31.03
2023-08-01T11:57:04.753Z,31.19
2023-08-01T11:59:34.860Z,31.07
2023-08-01T12:02:04.623Z,31.08
2023-08-01T12:04:34.933Z,30.96
2023-08-01T12:07:14.747Z,30.69
2023-08-01T12:10:02.432Z,30.63
2023-08-01T12:12:33.524Z,30.59
2023-08-01T12:15:04.046Z,30.55
2023-08-01T12:17:35.991Z,30.45
2023-08-01T12:20:05.417Z,30.23
2023-08-01T12:22:35.522Z,29.98
2023-08-01T12:25:05.771Z,29.84
2023-08-01T12:27:35.565Z,30.08
2023-08-01T12:30:08.064Z,30.43
2023-08-01T12:32:39.185Z,30.65
2023-08-01T12:35:09.766Z,30.86
2023-08-01T12:37:39.383Z,31.05
2023-08-01T12:40:09.623Z,31.28
2023-08-01T12:42:39.411Z,31.46
2023-08-01T12:45:09.910Z,31.59
2023-08-01T12:47:41.658Z,31.78
2023-08-01T12:50:11.971Z,32.00
2023-08-01T12:52:41.560Z,32.18
2023-08-01T12:55:10.997Z,32.36
2023-08-01T12:57:39.631Z,32.51
2023-08-01T13:00:11.817Z,32.55
2023-08-01T13:02:41.433Z,32.57
2023-08-01T13:05:11.697Z,32.52
2023-08-01T13:07:40.952Z,32.51
2023-08-01T13:10:11.590Z,32.50
2023-08-01T13:12:41.566Z,32.48
2023-08-01T13:15:17.240Z,32.48
2023-08-01T13:17:47.297Z,32.33
2023-08-01T13:20:16.851Z,32.32
2023-08-01T13:22:48.778Z,32.31
2023-08-01T13:25:19.901Z,32.37
2023-08-01T13:27:49.493Z,32.37
2023-08-01T13:30:20.038Z,32.37
2023-08-01T13:32:49.777Z,32.34
2023-08-01T13:35:19.409Z,32.08
2023-08-01T13:37:48.762Z,31.73
2023-08-01T13:40:18.388Z,31.67
2023-08-01T13:42:47.943Z,31.79
2023-08-01T13:45:16.966Z,31.84
2023-08-01T13:47:47.398Z,31.93
2023-08-01T13:50:17.082Z,32.08
2023-08-01T13:52:47.573Z,32.29
2023-08-01T13:55:19.016Z,32.49
2023-08-01T13:57:48.684Z,32.58
2023-08-01T14:00:18.227Z,32.56
2023-08-01T14:02:50.882Z,32.36
2023-08-01T14:05:21.025Z,32.16
2023-08-01T14:07:51.334Z,32.23
2023-08-01T14:10:21.584Z,32.23
2023-08-01T14:12:51.673Z,32.26
2023-08-01T14:15:21.968Z,32.29
2023-08-01T14:17:51.593Z,32.35
2023-08-01T14:20:22.264Z,32.46
2023-08-01T14:22:52.286Z,32.51
2023-08-01T14:25:21.677Z,32.29
2023-08-01T14:27:51.146Z,32.22
2023-08-01T14:30:20.728Z,32.22
2023-08-01T14:32:50.811Z,32.35
2023-08-01T14:35:20.407Z,32.42
2023-08-01T14:37:50.333Z,32.37
2023-08-01T14:40:20.477Z,32.35
2023-08-01T14:42:50.201Z,32.34
2023-08-01T14:45:19.582Z,32.24
2023-08-01T14:47:49.166Z,32.04
2023-08-01T14:50:18.759Z,31.89
2023-08-01T14:52:48.409Z,31.82
2023-08-01T14:55:17.951Z,31.78
2023-08-01T14:57:47.619Z,31.74
2023-08-01T15:00:18.077Z,31.63
2023-08-01T15:02:52.693Z,31.50
2023-08-01T15:05:23.046Z,31.33
2023-08-01T15:07:52.688Z,31.07
2023-08-01T15:10:22.236Z,30.92
2023-08-01T15:12:53.812Z,30.78
2023-08-01T15:15:23.395Z,30.64
2023-08-01T15:17:53.546Z,30.52
2023-08-01T15:20:24.503Z,30.46
2023-08-01T15:22:54.643Z,30.39
2023-08-01T15:25:26.033Z,30.42
2023-08-01T15:27:56.548Z,30.40
2023-08-01T15:30:28.164Z,30.44
2023-08-01T15:32:58.158Z,30.53
2023-08-01T15:35:34.533Z,30.49
2023-08-01T15:38:04.611Z,30.44
2023-08-01T15:40:35.647Z,30.40
2023-08-01T15:43:05.892Z,30.31
2023-08-01T15:45:36.506Z,30.28
2023-08-01T15:48:06.713Z,30.22
2023-08-01T15:50:37.177Z,30.02
2023-08-01T15:53:07.861Z,29.81
2023-08-01T15:55:38.622Z,29.64
2023-08-01T15:58:10.345Z,29.49
2023-08-01T16:00:40.806Z,29.39
2023-08-01T16:03:09.570Z,29.36
2023-08-01T16:05:40.958Z,29.28
2023-08-01T16:08:14.463Z,29.16
2023-08-01T16:10:46.227Z,29.07
2023-08-01T16:13:14.954Z,29.01
2023-08-01T16:15:45.408Z,28.96
2023-08-01T16:18:15.104Z,28.84
2023-08-01T16:20:45.340Z,28.75
2023-08-01T16:23:14.915Z,28.65
2023-08-01T16:25:44.556Z,28.56
2023-08-01T16:28:14.768Z,28.53
2023-08-01T16:30:45.308Z,28.49
2023-08-01T16:33:15.844Z,28.37
2023-08-01T16:35:45.957Z,28.23
2023-08-01T16:38:15.702Z,28.20
2023-08-01T16:40:45.244Z,28.18
2023-08-01T16:43:14.877Z,27.98
2023-08-01T16:45:44.871Z,27.82
2023-08-01T16:48:14.678Z,27.68
2023-08-01T16:50:44.161Z,27.57
2023-08-01T16:53:13.845Z,27.52
2023-08-01T16:55:43.348Z,27.42
2023-08-01T16:58:15.402Z,27.31
2023-08-01T17:00:44.973Z,27.24
2023-08-01T17:03:15.017Z,27.22
2023-08-01T17:05:45.084Z,27.14
2023-08-01T17:08:15.137Z,27.07
2023-08-01T17:10:45.467Z,27.00
2023-08-01T17:13:15.477Z,26.89
2023-08-01T17:15:44.279Z,26.74
2023-08-01T17:18:19.600Z,26.66
2023-08-01T17:20:50.029Z,26.55
2023-08-01T17:23:19.468Z,26.47
2023-08-01T17:25:48.234Z,26.35
2023-08-01T17:28:17.927Z,26.29
2023-08-01T17:30:47.437Z,26.26
2023-08-01T17:33:17.553Z,26.17
2023-08-01T17:35:47.495Z,26.03
2023-08-01T17:38:17.167Z,25.99
2023-08-01T17:40:46.623Z,25.95
2023-08-01T17:43:16.901Z,25.82
2023-08-01T17:45:46.997Z,25.71
2023-08-01T17:48:17.148Z,25.64
2023-08-01T17:50:47.045Z,25.61
2023-08-01T17:53:16.658Z,25.56
2023-08-01T17:55:47.221Z,25.42
2023-08-01T17:58:24.314Z,25.30
2023-08-01T18:00:54.162Z,25.14
2023-08-01T18:03:24.355Z,24.96
2023-08-01T18:06:15.260Z,24.83
2023-08-01T18:08:45.734Z,24.82
2023-08-01T18:11:17.598Z,24.81
2023-08-01T18:13:49.573Z,24.79
2023-08-01T18:16:24.052Z,24.71
2023-08-01T18:18:54.937Z,24.63
2023-08-01T18:21:24.556Z,24.56
2023-08-01T18:23:54.241Z,24.48
2023-08-01T18:26:25.437Z,24.42
2023-08-01T18:28:55.264Z,24.39
2023-08-01T18:31:25.647Z,24.38
2023-08-01T18:33:55.533Z,24.37
2023-08-01T18:36:29.616Z,24.34
2023-08-01T18:39:01.418Z,24.31
2023-08-01T18:41:31.751Z,24.24
2023-08-01T18:44:01.745Z,24.13
2023-08-01T18:46:32.254Z,24.00
2023-08-01T18:49:01.754Z,23.91
2023-08-01T18:51:34.041Z,23.88
2023-08-01T18:54:05.206Z,23.86
2023-08-01T18:56:34.853Z,23.83
2023-08-01T18:59:05.206Z,23.76
2023-08-01T19:01:34.698Z,23.64
2023-08-01T19:04:05.242Z,23.46
2023-08-01T19:06:34.463Z,23.35
2023-08-01T19:09:20.068Z,23.26
2023-08-01T19:11:51.291Z,23.19
2023-08-01T19:14:21.531Z,23.13
2023-08-01T19:16:51.568Z,23.08
2023-08-01T19:19:21.430Z,23.02
2023-08-01T19:21:50.833Z,23.01
2023-08-01T19:24:23.686Z,23.01
2023-08-01T19:26:53.678Z,23.02
2023-08-01T19:29:23.433Z,23.01
2023-08-01T19:31:54.146Z,22.98
2023-08-01T19:34:23.690Z,22.92
2023-08-01T19:36:52.464Z,22.85
2023-08-01T19:39:23.482Z,22.77
2023-08-01T19:41:52.955Z,22.71
2023-08-01T19:44:24.504Z,22.61
2023-08-01T19:46:53.933Z,22.51
2023-08-01T19:49:24.104Z,22.43
2023-08-01T19:51:53.679Z,22.33
2023-08-01T19:54:23.472Z,22.24
2023-08-01T19:56:53.114Z,22.20
2023-08-01T19:59:23.782Z,22.15
2023-08-01T20:01:55.388Z,22.09
2023-08-01T20:04:25.166Z,22.00
2023-08-01T20:06:54.752Z,21.90
2023-08-01T20:09:24.249Z,21.81
2023-08-01T20:11:53.849Z,21.79
2023-08-01T20:14:23.218Z,21.78
2023-08-01T20:16:54.428Z,21.76
2023-08-01T20:19:24.014Z,21.72
2023-08-01T20:21:54.901Z,21.68
2023-08-01T20:24:24.516Z,21.65
2023-08-01T20:26:54.156Z,21.60
2023-08-01T20:29:23.696Z,21.56
2023-08-01T20:31:53.625Z,21.51
2023-08-01T20:34:23.147Z,21.45
2023-08-01T20:36:53.123Z,21.40
2023-08-01T20:39:25.274Z,21.33
2023-08-01T20:41:55.677Z,21.28
2023-08-01T20:44:25.732Z,21.19
2023-08-01T20:46:55.131Z,21.11
2023-08-01T20:49:24.230Z,21.05
2023-08-01T20:51:53.751Z,21.03
2023-08-01T20:54:23.653Z,20.99
2023-08-01T20:56:53.138Z,20.95
2023-08-01T20:59:22.833Z,20.90
2023-08-01T21:01:52.789Z,20.90
2023-08-01T21:04:22.346Z,20.89
2023-08-01T21:06:51.876Z,20.89
2023-08-01T21:09:21.506Z,20.86
2023-08-01T21:11:50.976Z,20.85
2023-08-01T21:14:20.615Z,20.84
2023-08-01T21:16:52.368Z,20.83
2023-08-01T21:19:22.059Z,20.81
2023-08-01T21:21:52.057Z,20.76
2023-08-01T21:24:22.049Z,20.65
2023-08-01T21:26:51.574Z,20.56
2023-08-01T21:29:22.892Z,20.53
2023-08-01T21:31:54.187Z,20.48
2023-08-01T21:34:23.659Z,20.46
2023-08-01T21:36:53.889Z,20.44
2023-08-01T21:39:23.875Z,20.39
2023-08-01T21:41:52.570Z,20.33
2023-08-01T21:44:23.608Z,20.29
2023-08-01T21:46:53.203Z,20.26
2023-08-01T21:49:22.714Z,20.21
2023-08-01T21:51:52.344Z,20.15
2023-08-01T21:54:21.751Z,20.10
2023-08-01T21:56:51.358Z,20.06
2023-08-01T21:59:21.215Z,19.99
2023-08-01T22:01:51.688Z,19.92
2023-08-01T22:04:21.154Z,19.91
2023-08-01T22:06:50.742Z,19.91
2023-08-01T22:09:19.424Z,19.90
2023-08-01T22:11:49.222Z,19.88
2023-08-01T22:14:18.800Z,19.81
2023-08-01T22:16:49.058Z,19.78
2023-08-01T22:19:18.894Z,19.75
2023-08-01T22:21:49.264Z,19.74
2023-08-01T22:24:18.855Z,19.74
2023-08-01T22:26:48.348Z,19.74
2023-08-01T22:29:18.641Z,19.73
2023-08-01T22:31:48.731Z,19.71
2023-08-01T22:34:17.710Z,19.69
2023-08-01T22:36:48.018Z,19.66
2023-08-01T22:39:19.213Z,19.62
2023-08-01T22:41:49.572Z,19.60
2023-08-01T22:44:19.849Z,19.57
2023-08-01T22:46:49.829Z,19.55
2023-08-01T22:49:18.576Z,19.52
2023-08-01T22:51:49.053Z,19.47
2023-08-01T22:54:19.931Z,19.44
2023-08-01T22:56:50.090Z,19.40
2023-08-01T22:59:21.093Z,19.36
2023-08-01T23:01:51.521Z,19.37
2023-08-01T23:04:21.614Z,19.38
2023-08-01T23:06:51.656Z,19.37
2023-08-01T23:09:22.914Z,19.38
2023-08-01T23:11:53.502Z,19.35
2023-08-01T23:14:24.083Z,19.31
2023-08-01T23:16:57.039Z,19.30
2023-08-01T23:19:26.899Z,19.28
2023-08-01T23:21:57.670Z,19.27
2023-08-01T23:24:27.220Z,19.26
2023-08-01T23:26:56.893Z,19.25
2023-08-01T23:29:27.321Z,19.24
2023-08-01T23:31:58.047Z,19.22
2023-08-01T23:34:27.762Z,19.17
2023-08-01T23:36:57.602Z,19.13
2023-08-01T23:39:28.940Z,19.08
2023-08-01T23:41:58.948Z,19.07
2023-08-01T23:44:30.497Z,19.06
2023-08-01T23:47:00.815Z,19.06
2023-08-01T23:49:36.494Z,19.05
2023-08-01T23:52:07.930Z,19.02
2023-08-01T23:54:37.774Z,18.99
2023-08-01T23:57:07.905Z,19.01
2023-08-01T23:59:38.465Z,19.03
